PDV weather

Punta De Vacas Airport
Punta de Vacas, Mendoza Province, Argentina

Public forecast

Using degrees Celsius for public forecast. Weather courtesy of forecast.io.

Closest aviation weather report (METAR) to Punta De Vacas Airport

Closest report is El Plumerillo Airport, 48.8 nm (90.4 km) E. Retrieved 2019/11/18 12:00 UTC (46 minutes ago):

SAME 181200Z 18015KT 9999 BKN045 22/03 Q1019

Closest aviation forecast (TAF) to Punta De Vacas Airport

Closest forecast is El Plumerillo Airport, 48.8 nm (90.4 km) E. Retrieved 2019/11/18 12:00 UTC (46 minutes ago):

TAF SAME 181100Z 1812/1912 14015KT 9999 FEW040 SCT090 TX28/1820Z TN18/1910Z